Time;durP1;ratioP1;P1;durP2;ratioP2;P2;SDS_P1;SDS_P2;PMS_P1;PMS_P2;Temp;Humidity;BMP_temperature;BMP_pressure;BME280_temperature;BME280_humidity;BME280_pressure;Samples;Min_cycle;Max_cycle;Signal;HPM_P1;HPM_P2
2021/03/16 00:01:11;;;;;;;4.40;3.63;;;;;;;;;;5008590;28;20578;-66
2021/03/16 00:03:39;;;;;;;3.50;3.20;;;;;;;;;;4982097;28;20460;-66
2021/03/16 00:06:06;;;;;;;4.43;3.00;;;;;;;;;;4991613;28;20455;-66
2021/03/16 00:08:33;;;;;;;6.20;4.53;;;;;;;;;;4974956;28;20447;-66
2021/03/16 00:11:00;;;;;;;7.10;3.77;;;;;;;;;;4976151;28;20476;-66
2021/03/16 00:13:27;;;;;;;5.83;4.20;;;;;;;;;;4980792;28;20482;-66
2021/03/16 00:15:53;;;;;;;6.90;4.33;;;;;;;;;;4995286;28;20455;-66
2021/03/16 00:18:20;;;;;;;6.77;4.27;;;;;;;;;;4994071;28;20447;-66
2021/03/16 00:20:47;;;;;;;3.93;3.60;;;;;;;;;;5003120;28;20482;-67
2021/03/16 00:23:13;;;;;;;6.00;3.77;;;;;;;;;;4987254;28;20452;-66
2021/03/16 00:25:40;;;;;;;4.40;3.57;;;;;;;;;;5013496;28;20442;-66
2021/03/16 00:28:08;;;;;;;4.73;3.30;;;;;;;;;;4999772;28;21056;-65
2021/03/16 00:30:35;;;;;;;8.97;4.37;;;;;;;;;;5004376;28;20931;-66
2021/03/16 00:33:02;;;;;;;5.43;4.10;;;;;;;;;;5007546;28;21056;-66
2021/03/16 00:35:28;;;;;;;5.60;3.37;;;;;;;;;;4993233;28;21038;-66
2021/03/16 00:37:55;;;;;;;3.50;3.20;;;;;;;;;;4993611;28;20934;-67
2021/03/16 00:40:22;;;;;;;9.10;3.80;;;;;;;;;;4991904;28;20470;-65
2021/03/16 00:42:48;;;;;;;5.03;3.70;;;;;;;;;;4974168;28;20494;-67
2021/03/16 00:45:16;;;;;;;5.13;3.60;;;;;;;;;;5001078;28;20454;-67
2021/03/16 00:47:43;;;;;;;6.30;4.13;;;;;;;;;;4994642;28;20462;-66
2021/03/16 00:50:13;;;;;;;6.03;3.60;;;;;;;;;;5002648;28;20510;-66
2021/03/16 00:52:40;;;;;;;6.93;4.10;;;;;;;;;;4992987;28;20474;-66
2021/03/16 00:55:07;;;;;;;3.87;3.53;;;;;;;;;;4995136;28;20454;-66
2021/03/16 00:57:34;;;;;;;5.10;3.50;;;;;;;;;;4994769;28;20821;-65
2021/03/16 01:00:00;;;;;;;8.07;4.10;;;;;;;;;;4999554;28;20458;-67
2021/03/16 01:02:28;;;;;;;4.30;3.70;;;;;;;;;;5007115;28;20453;-67
2021/03/16 01:04:54;;;;;;;7.40;4.70;;;;;;;;;;5010772;28;20449;-67
2021/03/16 01:07:21;;;;;;;5.50;3.60;;;;;;;;;;5011600;28;20456;-66
2021/03/16 01:09:48;;;;;;;4.93;3.40;;;;;;;;;;4998254;28;20541;-65
2021/03/16 01:12:14;;;;;;;5.43;3.63;;;;;;;;;;4991976;28;20573;-65
2021/03/16 01:14:41;;;;;;;3.90;3.53;;;;;;;;;;4994279;28;20455;-65
2021/03/16 01:17:08;;;;;;;6.03;3.47;;;;;;;;;;4990480;28;20459;-64
2021/03/16 01:19:35;;;;;;;4.03;3.63;;;;;;;;;;4990876;28;20465;-64
2021/03/16 01:22:02;;;;;;;4.07;3.73;;;;;;;;;;4998495;28;20857;-64
2021/03/16 01:24:28;;;;;;;8.27;3.80;;;;;;;;;;5010807;28;20553;-65
2021/03/16 01:26:55;;;;;;;4.87;3.37;;;;;;;;;;4996837;28;20798;-66
2021/03/16 01:29:22;;;;;;;5.07;4.20;;;;;;;;;;5000939;28;20459;-66
2021/03/16 01:31:48;;;;;;;4.93;3.87;;;;;;;;;;4982344;28;20498;-65
2021/03/16 01:34:15;;;;;;;4.03;3.60;;;;;;;;;;4991449;28;21019;-65
2021/03/16 01:36:42;;;;;;;4.20;3.67;;;;;;;;;;4987916;28;20526;-66
2021/03/16 01:39:09;;;;;;;6.27;3.63;;;;;;;;;;4994616;28;20500;-65
2021/03/16 01:41:36;;;;;;;5.53;4.20;;;;;;;;;;5001363;28;20993;-66
2021/03/16 01:44:02;;;;;;;4.90;3.30;;;;;;;;;;4998637;28;20483;-66
2021/03/16 01:46:29;;;;;;;3.83;3.53;;;;;;;;;;4993385;28;20447;-66
2021/03/16 01:48:56;;;;;;;3.90;3.60;;;;;;;;;;5000420;28;20977;-65
2021/03/16 01:51:22;;;;;;;4.03;3.37;;;;;;;;;;4991918;28;20728;-66
2021/03/16 01:53:50;;;;;;;5.40;4.70;;;;;;;;;;4991564;28;20999;-65
2021/03/16 01:56:16;;;;;;;4.20;3.90;;;;;;;;;;5011803;28;20821;-66
2021/03/16 01:58:44;;;;;;;5.37;4.10;;;;;;;;;;5000863;28;20451;-65
2021/03/16 02:01:11;;;;;;;6.73;3.73;;;;;;;;;;4985487;28;20548;-66
2021/03/16 02:03:38;;;;;;;7.57;3.77;;;;;;;;;;4991470;28;20550;-66
2021/03/16 02:06:07;;;;;;;4.03;3.60;;;;;;;;;;4989041;28;20454;-66
2021/03/16 02:08:38;;;;;;;4.40;3.60;;;;;;;;;;5005044;28;20966;-65
2021/03/16 02:11:08;;;;;;;5.47;4.10;;;;;;;;;;4992186;28;20470;-66
2021/03/16 02:13:38;;;;;;;4.03;3.73;;;;;;;;;;4995320;28;20489;-67
2021/03/16 02:16:10;;;;;;;5.23;4.10;;;;;;;;;;4985617;28;20447;-66
2021/03/16 02:18:40;;;;;;;4.23;3.70;;;;;;;;;;4991562;28;20511;-65
2021/03/16 02:21:09;;;;;;;4.20;3.83;;;;;;;;;;5012032;28;20543;-64
2021/03/16 02:23:42;;;;;;;5.03;3.93;;;;;;;;;;4990810;28;20463;-65
2021/03/16 02:26:15;;;;;;;3.80;3.40;;;;;;;;;;4997788;28;20458;-66
2021/03/16 02:28:46;;;;;;;4.07;3.67;;;;;;;;;;4996128;28;20446;-65
2021/03/16 02:31:15;;;;;;;4.33;3.90;;;;;;;;;;4995520;28;20482;-65
2021/03/16 02:33:43;;;;;;;7.23;3.67;;;;;;;;;;4992832;28;20510;-65
2021/03/16 02:36:12;;;;;;;6.77;4.43;;;;;;;;;;4992694;28;20453;-65
2021/03/16 02:38:40;;;;;;;5.07;3.57;;;;;;;;;;4986333;28;20543;-65
2021/03/16 02:41:09;;;;;;;6.47;4.00;;;;;;;;;;5015265;28;20477;-66
2021/03/16 02:43:35;;;;;;;4.93;3.77;;;;;;;;;;4995444;28;20438;-67
2021/03/16 02:46:03;;;;;;;6.57;4.63;;;;;;;;;;5006836;28;20454;-66
2021/03/16 02:48:31;;;;;;;5.37;4.23;;;;;;;;;;4989448;28;20550;-66
2021/03/16 02:50:58;;;;;;;4.17;3.70;;;;;;;;;;4985189;28;20474;-65
2021/03/16 02:53:26;;;;;;;10.73;4.20;;;;;;;;;;4995305;28;20474;-66
2021/03/16 02:55:53;;;;;;;4.90;3.90;;;;;;;;;;5005864;28;20463;-65
2021/03/16 02:58:21;;;;;;;6.00;4.00;;;;;;;;;;4999308;28;20965;-66
2021/03/16 03:00:49;;;;;;;7.73;4.30;;;;;;;;;;4975832;28;20467;-66
2021/03/16 03:03:16;;;;;;;8.50;4.93;;;;;;;;;;5007821;28;20949;-66
2021/03/16 03:05:45;;;;;;;5.33;4.50;;;;;;;;;;4989123;28;20540;-66
2021/03/16 03:08:12;;;;;;;6.13;4.53;;;;;;;;;;4998532;28;20869;-66
2021/03/16 03:10:39;;;;;;;5.30;4.23;;;;;;;;;;5000136;28;20999;-65
2021/03/16 03:13:06;;;;;;;8.53;5.50;;;;;;;;;;5014869;28;20488;-66
2021/03/16 03:15:33;;;;;;;7.50;4.90;;;;;;;;;;4996472;28;20949;-66
2021/03/16 03:18:00;;;;;;;7.50;5.00;;;;;;;;;;4992858;28;20928;-67
2021/03/16 03:20:26;;;;;;;10.17;6.00;;;;;;;;;;4995431;28;20493;-65
2021/03/16 03:22:56;;;;;;;9.07;5.70;;;;;;;;;;4990889;28;20432;-64
2021/03/16 03:25:24;;;;;;;8.90;6.03;;;;;;;;;;5007607;28;20660;-65
2021/03/16 03:27:53;;;;;;;6.73;5.00;;;;;;;;;;5010314;28;20451;-65
2021/03/16 03:30:23;;;;;;;13.23;6.43;;;;;;;;;;4994590;28;20982;-66
2021/03/16 03:32:49;;;;;;;9.60;6.57;;;;;;;;;;4993886;28;20513;-65
2021/03/16 03:35:16;;;;;;;12.10;6.90;;;;;;;;;;5006775;28;20453;-66
2021/03/16 03:37:45;;;;;;;9.30;6.13;;;;;;;;;;4993641;28;20453;-67
2021/03/16 03:40:13;;;;;;;12.30;6.87;;;;;;;;;;4999214;28;20545;-65
2021/03/16 03:42:41;;;;;;;13.73;7.80;;;;;;;;;;5009434;28;20559;-65
2021/03/16 03:45:09;;;;;;;17.73;7.80;;;;;;;;;;5006188;28;20544;-65
2021/03/16 03:47:36;;;;;;;14.20;8.30;;;;;;;;;;4985040;28;20454;-66
2021/03/16 03:50:03;;;;;;;16.03;7.70;;;;;;;;;;5007161;28;20549;-65
2021/03/16 03:52:29;;;;;;;13.20;7.80;;;;;;;;;;4987815;28;20512;-65
2021/03/16 03:54:56;;;;;;;11.27;7.57;;;;;;;;;;4996988;28;20454;-65
2021/03/16 03:57:24;;;;;;;14.13;8.30;;;;;;;;;;4992748;28;20451;-66
2021/03/16 03:59:51;;;;;;;17.30;9.20;;;;;;;;;;5008492;28;20455;-64
2021/03/16 04:02:18;;;;;;;9.97;8.13;;;;;;;;;;4993775;28;20980;-64
2021/03/16 04:04:45;;;;;;;13.00;8.00;;;;;;;;;;4997361;28;21016;-64
2021/03/16 04:07:13;;;;;;;14.03;8.30;;;;;;;;;;5012135;28;20516;-64
2021/03/16 04:09:39;;;;;;;15.50;9.47;;;;;;;;;;4982724;28;20455;-64
2021/03/16 04:12:06;;;;;;;18.63;9.80;;;;;;;;;;4983599;28;20538;-64
2021/03/16 04:14:34;;;;;;;17.20;8.80;;;;;;;;;;4984071;28;20884;-64
2021/03/16 04:17:02;;;;;;;16.10;8.50;;;;;;;;;;5012063;28;20464;-64
2021/03/16 04:19:29;;;;;;;21.37;11.13;;;;;;;;;;4994661;28;20822;-65
2021/03/16 04:21:55;;;;;;;14.90;9.83;;;;;;;;;;5000212;28;20857;-65
2021/03/16 04:24:23;;;;;;;17.50;11.17;;;;;;;;;;4992930;28;20454;-65
2021/03/16 04:26:50;;;;;;;16.27;11.80;;;;;;;;;;5002530;28;20451;-64
2021/03/16 04:29:16;;;;;;;22.63;13.87;;;;;;;;;;4993896;28;20529;-64
2021/03/16 04:31:44;;;;;;;20.97;12.57;;;;;;;;;;4990964;28;20477;-65
2021/03/16 04:34:10;;;;;;;24.03;14.27;;;;;;;;;;4974247;28;20454;-66
2021/03/16 04:36:37;;;;;;;21.23;14.80;;;;;;;;;;4991147;28;20447;-65
2021/03/16 04:39:04;;;;;;;29.53;15.10;;;;;;;;;;4974415;28;20818;-64
2021/03/16 04:41:30;;;;;;;34.97;16.93;;;;;;;;;;4990281;28;20471;-64
2021/03/16 04:43:57;;;;;;;27.90;15.33;;;;;;;;;;4987157;28;20450;-65
2021/03/16 04:46:23;;;;;;;28.67;14.73;;;;;;;;;;5003718;28;20957;-65
2021/03/16 04:48:51;;;;;;;28.97;14.60;;;;;;;;;;4990391;28;20458;-64
2021/03/16 04:51:18;;;;;;;26.80;14.60;;;;;;;;;;5002787;28;20470;-65
2021/03/16 04:53:44;;;;;;;26.73;14.83;;;;;;;;;;4993987;28;20535;-64
2021/03/16 04:56:11;;;;;;;20.63;12.60;;;;;;;;;;5011747;28;20453;-64
2021/03/16 04:58:38;;;;;;;22.33;14.70;;;;;;;;;;4998079;28;20952;-65
2021/03/16 05:01:04;;;;;;;28.80;15.73;;;;;;;;;;5006753;28;20558;-64
2021/03/16 05:03:31;;;;;;;26.10;15.67;;;;;;;;;;4984675;28;20461;-65
2021/03/16 05:05:59;;;;;;;31.30;17.80;;;;;;;;;;5007068;28;20536;-65
2021/03/16 05:08:25;;;;;;;30.37;19.27;;;;;;;;;;4988334;28;20538;-64
2021/03/16 05:10:52;;;;;;;31.80;19.60;;;;;;;;;;4997627;28;20517;-65
2021/03/16 05:13:20;;;;;;;27.80;18.33;;;;;;;;;;4989162;28;20483;-66
2021/03/16 05:15:47;;;;;;;28.60;20.33;;;;;;;;;;4992215;28;20455;-64
2021/03/16 05:18:13;;;;;;;30.63;19.67;;;;;;;;;;4983980;28;20825;-64
2021/03/16 05:20:40;;;;;;;33.03;19.03;;;;;;;;;;4986585;28;20540;-65
2021/03/16 05:23:07;;;;;;;33.60;19.50;;;;;;;;;;4994657;28;20549;-65
2021/03/16 05:25:34;;;;;;;31.03;18.93;;;;;;;;;;4996403;28;20465;-66
2021/03/16 05:28:01;;;;;;;27.03;17.57;;;;;;;;;;4989415;28;20459;-65
2021/03/16 05:30:27;;;;;;;34.77;17.77;;;;;;;;;;5011896;28;21000;-66
2021/03/16 05:32:55;;;;;;;26.43;15.57;;;;;;;;;;4994977;28;20486;-66
2021/03/16 05:35:21;;;;;;;29.27;16.80;;;;;;;;;;4997230;28;20461;-66
2021/03/16 05:37:48;;;;;;;31.30;16.07;;;;;;;;;;4996622;28;20470;-66
2021/03/16 05:40:16;;;;;;;29.77;15.50;;;;;;;;;;4999170;28;20480;-65
2021/03/16 05:42:42;;;;;;;24.97;14.23;;;;;;;;;;5009346;28;20937;-65
2021/03/16 05:45:10;;;;;;;32.07;16.07;;;;;;;;;;4989340;28;20551;-64
2021/03/16 05:47:38;;;;;;;28.90;13.30;;;;;;;;;;4975100;28;20539;-66
2021/03/16 05:50:05;;;;;;;29.47;13.63;;;;;;;;;;4991798;28;20469;-66
2021/03/16 05:52:32;;;;;;;23.00;13.77;;;;;;;;;;4992482;28;20485;-66
2021/03/16 05:54:59;;;;;;;25.70;12.37;;;;;;;;;;5005821;28;20460;-66
2021/03/16 05:57:27;;;;;;;32.40;13.10;;;;;;;;;;5003516;28;20546;-65
2021/03/16 05:59:54;;;;;;;18.10;11.30;;;;;;;;;;4973272;28;20566;-66
2021/03/16 06:02:21;;;;;;;22.70;11.60;;;;;;;;;;4981786;28;20441;-67
2021/03/16 06:04:47;;;;;;;17.40;10.40;;;;;;;;;;4988776;28;20451;-66
2021/03/16 06:07:14;;;;;;;24.50;11.83;;;;;;;;;;4992869;28;20454;-67
2021/03/16 06:09:41;;;;;;;19.37;10.70;;;;;;;;;;4987498;28;21462;-65
2021/03/16 06:12:08;;;;;;;14.60;9.23;;;;;;;;;;4983890;28;20483;-67
2021/03/16 06:14:37;;;;;;;20.03;9.67;;;;;;;;;;4980523;28;20482;-64
2021/03/16 06:17:04;;;;;;;20.90;9.50;;;;;;;;;;5004386;28;20450;-66
2021/03/16 06:19:31;;;;;;;17.50;9.93;;;;;;;;;;5009114;28;20485;-66
2021/03/16 06:21:58;;;;;;;22.57;8.97;;;;;;;;;;5006479;28;20478;-67
2021/03/16 06:24:25;;;;;;;23.33;9.07;;;;;;;;;;4980054;28;20451;-67
2021/03/16 06:26:52;;;;;;;21.43;10.20;;;;;;;;;;4982786;28;20454;-66
2021/03/16 06:29:18;;;;;;;20.77;10.17;;;;;;;;;;4995457;28;20451;-66
2021/03/16 06:31:46;;;;;;;18.60;8.10;;;;;;;;;;5006681;28;20519;-66
2021/03/16 06:34:19;;;;;;;19.50;9.50;;;;;;;;;;4999153;28;20525;-66
2021/03/16 06:36:48;;;;;;;15.93;9.00;;;;;;;;;;4991814;28;20528;-66
2021/03/16 06:39:18;;;;;;;15.17;8.03;;;;;;;;;;4993668;28;20446;-66
2021/03/16 06:41:45;;;;;;;17.13;8.30;;;;;;;;;;4995762;28;20462;-67
2021/03/16 06:44:16;;;;;;;17.80;9.43;;;;;;;;;;5006068;28;20453;-66
2021/03/16 06:46:43;;;;;;;19.30;8.60;;;;;;;;;;5009397;28;20479;-66
2021/03/16 06:49:13;;;;;;;16.70;7.63;;;;;;;;;;4991757;28;20455;-66
2021/03/16 06:51:40;;;;;;;16.70;8.40;;;;;;;;;;4991524;28;20474;-66
2021/03/16 06:54:10;;;;;;;13.97;7.40;;;;;;;;;;5003488;28;20530;-65
2021/03/16 06:56:37;;;;;;;20.00;8.17;;;;;;;;;;5015051;28;20456;-65
2021/03/16 06:59:05;;;;;;;13.27;7.77;;;;;;;;;;5001039;28;20457;-65
2021/03/16 07:01:32;;;;;;;14.97;7.97;;;;;;;;;;4976105;28;20471;-66
2021/03/16 07:03:59;;;;;;;12.53;7.67;;;;;;;;;;4996647;28;20459;-66
2021/03/16 07:06:28;;;;;;;18.40;7.63;;;;;;;;;;4975967;28;20455;-68
2021/03/16 07:08:54;;;;;;;16.90;4.77;;;;;;;;;;4985968;28;20474;-69
2021/03/16 07:11:24;;;;;;;11.17;4.70;;;;;;;;;;4987515;28;20482;-68
2021/03/16 07:13:51;;;;;;;13.60;5.00;;;;;;;;;;4990415;28;20473;-69
2021/03/16 07:16:18;;;;;;;8.13;3.57;;;;;;;;;;5012728;28;20595;-69
2021/03/16 07:18:46;;;;;;;9.17;4.57;;;;;;;;;;5001392;28;20469;-67
2021/03/16 07:21:15;;;;;;;8.50;4.93;;;;;;;;;;4997756;28;20474;-68
2021/03/16 07:23:45;;;;;;;8.67;4.33;;;;;;;;;;4995078;28;20449;-67
2021/03/16 07:26:12;;;;;;;9.93;4.30;;;;;;;;;;5009616;28;20449;-68
2021/03/16 07:28:39;;;;;;;8.83;4.10;;;;;;;;;;4994229;28;20494;-68
2021/03/16 07:31:05;;;;;;;7.00;4.10;;;;;;;;;;5002204;28;20502;-67
2021/03/16 07:33:32;;;;;;;12.40;3.83;;;;;;;;;;4989403;28;20486;-67
2021/03/16 07:35:59;;;;;;;5.00;3.07;;;;;;;;;;5004119;28;20466;-66
2021/03/16 07:38:25;;;;;;;5.00;2.73;;;;;;;;;;5001776;28;20475;-66
2021/03/16 07:40:53;;;;;;;6.33;2.70;;;;;;;;;;5011617;28;20523;-66
2021/03/16 07:43:20;;;;;;;9.87;3.57;;;;;;;;;;5003560;28;20546;-66
2021/03/16 07:45:46;;;;;;;8.57;2.87;;;;;;;;;;4991568;28;20455;-66
2021/03/16 07:48:14;;;;;;;4.87;2.80;;;;;;;;;;5007338;28;20458;-66
2021/03/16 07:50:40;;;;;;;6.50;3.13;;;;;;;;;;4998010;28;20474;-67
2021/03/16 07:53:07;;;;;;;6.17;2.37;;;;;;;;;;4992798;28;20482;-65
2021/03/16 07:55:34;;;;;;;5.03;3.00;;;;;;;;;;4985100;28;20544;-66
2021/03/16 07:58:08;;;;;;;4.40;2.03;;;;;;;;;;4984276;28;20543;-66
2021/03/16 08:00:35;;;;;;;8.30;2.50;;;;;;;;;;5001067;28;20529;-66
2021/03/16 08:03:03;;;;;;;5.00;2.73;;;;;;;;;;4980651;28;20453;-68
2021/03/16 08:05:39;;;;;;;5.40;2.57;;;;;;;;;;4997868;28;20466;-68
2021/03/16 08:08:15;;;;;;;6.07;2.30;;;;;;;;;;4994663;28;20444;-68
2021/03/16 08:10:42;;;;;;;10.40;2.60;;;;;;;;;;4991807;28;20589;-68
2021/03/16 08:13:12;;;;;;;5.07;2.10;;;;;;;;;;4990959;28;21058;-66
2021/03/16 08:15:43;;;;;;;4.73;2.47;;;;;;;;;;4990253;28;20439;-67
2021/03/16 08:18:10;;;;;;;4.63;2.20;;;;;;;;;;4979747;28;20446;-69
2021/03/16 08:20:37;;;;;;;6.70;3.60;;;;;;;;;;4982291;28;20474;-69
2021/03/16 08:23:08;;;;;;;6.27;2.03;;;;;;;;;;5004941;23;20507;-63
2021/03/16 08:25:35;;;;;;;6.70;2.53;;;;;;;;;;4992918;28;20546;-63
2021/03/16 08:28:06;;;;;;;7.10;2.43;;;;;;;;;;4989191;28;20509;-63
2021/03/16 08:30:35;;;;;;;8.47;2.60;;;;;;;;;;4991727;28;20489;-64
2021/03/16 08:33:09;;;;;;;7.60;2.03;;;;;;;;;;4986599;28;20600;-64
2021/03/16 08:35:39;;;;;;;4.47;2.00;;;;;;;;;;4992899;28;20454;-64
2021/03/16 08:38:06;;;;;;;6.30;2.80;;;;;;;;;;4993339;28;20447;-61
2021/03/16 08:40:33;;;;;;;8.40;2.83;;;;;;;;;;4986953;28;20990;-62
2021/03/16 08:43:00;;;;;;;6.43;2.90;;;;;;;;;;4980216;28;20480;-62
2021/03/16 08:45:30;;;;;;;6.27;2.33;;;;;;;;;;4992032;28;21029;-62
2021/03/16 08:47:57;;;;;;;6.03;2.60;;;;;;;;;;4991626;28;21066;-61
2021/03/16 08:50:25;;;;;;;5.17;2.43;;;;;;;;;;4988385;28;20570;-61
2021/03/16 08:52:51;;;;;;;8.13;2.43;;;;;;;;;;4974271;28;20483;-61
2021/03/16 08:55:25;;;;;;;4.83;2.13;;;;;;;;;;4980779;28;20461;-62
2021/03/16 08:57:53;;;;;;;6.07;2.73;;;;;;;;;;4981547;28;20447;-62
2021/03/16 09:00:24;;;;;;;5.13;2.17;;;;;;;;;;4974737;28;20534;-62
2021/03/16 09:02:50;;;;;;;10.97;2.60;;;;;;;;;;4995940;28;21007;-62
2021/03/16 09:05:26;;;;;;;8.27;2.87;;;;;;;;;;4985824;28;20466;-62
2021/03/16 09:07:57;;;;;;;18.50;5.83;;;;;;;;;;4973793;28;21075;-61
2021/03/16 09:10:24;;;;;;;13.70;5.40;;;;;;;;;;4974151;28;20587;-64
2021/03/16 09:12:51;;;;;;;11.57;5.80;;;;;;;;;;4979688;28;20486;-63
2021/03/16 09:15:19;;;;;;;9.33;3.73;;;;;;;;;;4981422;28;20550;-63
2021/03/16 09:17:46;;;;;;;6.87;3.20;;;;;;;;;;4992184;28;20538;-63
2021/03/16 09:20:14;;;;;;;7.00;3.10;;;;;;;;;;4991805;28;20512;-64
2021/03/16 09:22:42;;;;;;;11.87;3.30;;;;;;;;;;4989287;28;20498;-62
2021/03/16 09:25:10;;;;;;;6.10;2.90;;;;;;;;;;4987664;28;21133;-62
2021/03/16 09:27:39;;;;;;;4.90;2.40;;;;;;;;;;4992620;28;20490;-63
2021/03/16 09:30:06;;;;;;;6.60;2.73;;;;;;;;;;4983221;28;20828;-65
2021/03/16 09:32:33;;;;;;;8.80;3.00;;;;;;;;;;4997180;28;20516;-65
2021/03/16 09:35:00;;;;;;;6.50;2.50;;;;;;;;;;4992424;28;20450;-64
2021/03/16 09:37:26;;;;;;;10.63;3.10;;;;;;;;;;4988932;28;20548;-65
2021/03/16 09:39:55;;;;;;;6.77;2.57;;;;;;;;;;4987333;28;20911;-65
2021/03/16 09:42:31;;;;;;;6.20;2.40;;;;;;;;;;4991416;28;20481;-65
2021/03/16 09:44:59;;;;;;;5.90;2.20;;;;;;;;;;5004723;28;20488;-64
2021/03/16 09:47:27;;;;;;;10.70;3.60;;;;;;;;;;5011608;28;20544;-65
2021/03/16 09:50:04;;;;;;;6.40;2.40;;;;;;;;;;4991911;28;20828;-65
2021/03/16 09:52:32;;;;;;;7.53;2.83;;;;;;;;;;4990992;28;20553;-66
2021/03/16 09:54:59;;;;;;;12.03;4.87;;;;;;;;;;4989885;28;20573;-67
2021/03/16 09:57:31;;;;;;;10.43;5.17;;;;;;;;;;4991425;28;20509;-68
2021/03/16 09:59:57;;;;;;;10.73;5.17;;;;;;;;;;4990721;28;20946;-67
2021/03/16 10:02:32;;;;;;;10.13;4.73;;;;;;;;;;4991673;28;20505;-67
2021/03/16 10:05:03;;;;;;;12.07;5.77;;;;;;;;;;4973451;28;20844;-68
2021/03/16 10:07:30;;;;;;;10.60;5.03;;;;;;;;;;4988602;28;21026;-68
2021/03/16 10:10:07;;;;;;;13.77;5.13;;;;;;;;;;4978006;28;20451;-67
2021/03/16 10:12:33;;;;;;;12.60;5.20;;;;;;;;;;4979505;28;20489;-69
2021/03/16 10:15:00;;;;;;;14.73;6.03;;;;;;;;;;4989211;28;20561;-69
2021/03/16 10:17:28;;;;;;;12.60;5.23;;;;;;;;;;4988714;28;20451;-69
2021/03/16 10:19:55;;;;;;;12.23;5.80;;;;;;;;;;4972567;28;21018;-69
2021/03/16 10:22:26;;;;;;;11.23;5.30;;;;;;;;;;4985858;28;20482;-69
2021/03/16 10:24:57;;;;;;;9.47;4.70;;;;;;;;;;4992141;28;20442;-66
2021/03/16 10:27:25;;;;;;;8.30;4.90;;;;;;;;;;4978543;28;20883;-67
2021/03/16 10:29:52;;;;;;;7.47;4.13;;;;;;;;;;4988215;28;20469;-66
2021/03/16 10:32:19;;;;;;;12.60;5.20;;;;;;;;;;5011267;28;20472;-67
2021/03/16 10:34:45;;;;;;;11.27;5.17;;;;;;;;;;5005040;28;21037;-67
2021/03/16 10:37:19;;;;;;;9.00;5.13;;;;;;;;;;4991596;28;20451;-67
2021/03/16 10:39:45;;;;;;;7.20;4.90;;;;;;;;;;4972539;28;20970;-64
2021/03/16 10:42:12;;;;;;;12.80;5.57;;;;;;;;;;4972669;28;20482;-67
2021/03/16 10:44:40;;;;;;;14.10;5.03;;;;;;;;;;4981038;28;20454;-67
2021/03/16 10:47:07;;;;;;;9.63;5.73;;;;;;;;;;4991531;28;20472;-67
2021/03/16 10:49:33;;;;;;;9.30;5.20;;;;;;;;;;4982997;28;20455;-67
2021/03/16 10:52:00;;;;;;;12.30;5.30;;;;;;;;;;4982861;28;20467;-67
2021/03/16 10:54:27;;;;;;;10.40;5.33;;;;;;;;;;4977246;28;20482;-67
2021/03/16 10:56:54;;;;;;;13.20;5.30;;;;;;;;;;4979443;28;20516;-67
2021/03/16 10:59:21;;;;;;;15.00;5.20;;;;;;;;;;4978469;28;20908;-67
2021/03/16 11:01:49;;;;;;;7.83;4.20;;;;;;;;;;4995052;28;20462;-67
2021/03/16 11:04:17;;;;;;;12.73;4.70;;;;;;;;;;4993237;28;20442;-66
2021/03/16 11:06:44;;;;;;;7.70;4.83;;;;;;;;;;4975779;28;20588;-68
2021/03/16 11:09:11;;;;;;;11.33;4.97;;;;;;;;;;4994010;28;20985;-67
2021/03/16 11:11:38;;;;;;;8.53;4.30;;;;;;;;;;4994963;28;20470;-67
2021/03/16 11:14:04;;;;;;;9.33;5.33;;;;;;;;;;4994335;28;20482;-68
2021/03/16 11:16:31;;;;;;;13.83;4.50;;;;;;;;;;4994858;28;20588;-67
2021/03/16 11:18:58;;;;;;;11.40;5.03;;;;;;;;;;4994367;28;20517;-65
2021/03/16 11:21:25;;;;;;;4.13;2.20;;;;;;;;;;4982443;28;21027;-65
2021/03/16 11:23:52;;;;;;;9.73;4.33;;;;;;;;;;4994484;28;20529;-65
2021/03/16 11:26:19;;;;;;;8.17;4.60;;;;;;;;;;4995211;28;20468;-65
2021/03/16 11:28:45;;;;;;;12.57;3.90;;;;;;;;;;4993689;28;20507;-66
2021/03/16 11:31:12;;;;;;;11.23;5.50;;;;;;;;;;4997148;28;20961;-66
2021/03/16 11:33:40;;;;;;;10.90;4.93;;;;;;;;;;4995390;28;20960;-65
2021/03/16 11:36:07;;;;;;;12.57;5.13;;;;;;;;;;4995572;28;20544;-65
2021/03/16 11:38:34;;;;;;;12.57;5.03;;;;;;;;;;4995803;28;20458;-65
2021/03/16 11:41:01;;;;;;;8.50;4.00;;;;;;;;;;4980802;28;21012;-63
2021/03/16 11:43:28;;;;;;;10.17;5.03;;;;;;;;;;4990083;28;20879;-65
2021/03/16 11:45:54;;;;;;;13.30;5.70;;;;;;;;;;4977175;28;20546;-65
2021/03/16 11:48:21;;;;;;;8.97;4.60;;;;;;;;;;4993776;28;20946;-64
2021/03/16 11:50:48;;;;;;;10.73;4.40;;;;;;;;;;4993143;28;20549;-65
2021/03/16 11:53:16;;;;;;;9.80;5.13;;;;;;;;;;4990362;28;20498;-65
2021/03/16 11:55:42;;;;;;;8.70;4.47;;;;;;;;;;4992392;28;21013;-64
2021/03/16 11:58:09;;;;;;;10.17;4.20;;;;;;;;;;4994388;28;20455;-65
2021/03/16 12:00:36;;;;;;;7.80;4.30;;;;;;;;;;4993769;28;20545;-64
2021/03/16 12:03:03;;;;;;;11.00;4.20;;;;;;;;;;4993860;28;20529;-64
2021/03/16 12:05:29;;;;;;;11.73;4.00;;;;;;;;;;4993271;28;20455;-65
2021/03/16 12:07:56;;;;;;;11.30;4.60;;;;;;;;;;4993992;28;20987;-64
2021/03/16 12:10:24;;;;;;;8.23;4.33;;;;;;;;;;4992857;28;20442;-65
2021/03/16 12:12:50;;;;;;;9.60;4.77;;;;;;;;;;4991790;28;20574;-65
2021/03/16 12:15:18;;;;;;;9.60;4.20;;;;;;;;;;4990366;28;20451;-63
2021/03/16 12:17:45;;;;;;;9.50;4.63;;;;;;;;;;4990134;28;20459;-63
2021/03/16 12:20:12;;;;;;;10.17;4.87;;;;;;;;;;4992569;28;20506;-66
2021/03/16 12:22:39;;;;;;;6.33;4.00;;;;;;;;;;4991644;28;20499;-65
2021/03/16 12:25:07;;;;;;;9.60;4.40;;;;;;;;;;4992417;28;20572;-65
2021/03/16 12:27:35;;;;;;;11.57;4.40;;;;;;;;;;4991290;28;20522;-65
2021/03/16 12:30:01;;;;;;;17.23;5.17;;;;;;;;;;4984852;28;20458;-65
2021/03/16 12:32:28;;;;;;;9.10;4.50;;;;;;;;;;4993778;28;20593;-68
2021/03/16 12:34:55;;;;;;;8.93;4.10;;;;;;;;;;4992433;28;20516;-67
2021/03/16 12:37:21;;;;;;;10.77;3.90;;;;;;;;;;4992242;28;20965;-67
2021/03/16 12:39:48;;;;;;;8.57;3.57;;;;;;;;;;4993844;28;20949;-67
2021/03/16 12:42:15;;;;;;;8.80;3.80;;;;;;;;;;4993458;28;20568;-67
2021/03/16 12:44:42;;;;;;;7.33;3.83;;;;;;;;;;4993534;28;20814;-68
2021/03/16 12:47:09;;;;;;;8.20;3.83;;;;;;;;;;4993419;28;20540;-67
2021/03/16 12:49:36;;;;;;;6.20;2.90;;;;;;;;;;4991838;28;20533;-67
2021/03/16 12:52:02;;;;;;;9.27;3.70;;;;;;;;;;4992824;28;20577;-68
2021/03/16 12:54:29;;;;;;;5.87;3.17;;;;;;;;;;4993633;28;20585;-67
2021/03/16 12:56:56;;;;;;;6.20;3.20;;;;;;;;;;4993353;28;20459;-68
2021/03/16 12:59:22;;;;;;;5.30;3.17;;;;;;;;;;4993317;28;20545;-67
2021/03/16 13:01:50;;;;;;;10.13;4.57;;;;;;;;;;4993092;28;20549;-68
2021/03/16 13:04:16;;;;;;;9.60;4.27;;;;;;;;;;4992655;28;20447;-67
2021/03/16 13:06:43;;;;;;;8.33;3.23;;;;;;;;;;4992752;28;20541;-67
2021/03/16 13:09:10;;;;;;;7.70;3.50;;;;;;;;;;4993006;28;20451;-67
2021/03/16 13:11:36;;;;;;;7.33;2.80;;;;;;;;;;4992859;28;20470;-67
2021/03/16 13:14:03;;;;;;;5.27;3.03;;;;;;;;;;4993098;28;20482;-67
2021/03/16 13:16:30;;;;;;;7.17;3.60;;;;;;;;;;4992487;28;20454;-67
2021/03/16 13:18:57;;;;;;;7.13;2.83;;;;;;;;;;4992803;28;20525;-68
2021/03/16 13:21:24;;;;;;;8.97;2.80;;;;;;;;;;4984092;28;20486;-67
2021/03/16 13:23:50;;;;;;;6.40;3.47;;;;;;;;;;4992950;28;20441;-67
2021/03/16 13:26:17;;;;;;;7.40;3.67;;;;;;;;;;4992557;28;20439;-68
2021/03/16 13:28:43;;;;;;;10.00;3.30;;;;;;;;;;4992580;28;20977;-67
2021/03/16 13:31:10;;;;;;;7.63;3.70;;;;;;;;;;4992506;28;20458;-70
2021/03/16 13:33:37;;;;;;;5.20;3.00;;;;;;;;;;4992402;28;20509;-68
2021/03/16 13:36:05;;;;;;;6.63;3.63;;;;;;;;;;4991039;28;20541;-68
2021/03/16 13:38:32;;;;;;;7.10;2.97;;;;;;;;;;4992493;28;20538;-68
2021/03/16 13:40:58;;;;;;;8.73;3.80;;;;;;;;;;4992874;28;20458;-67
2021/03/16 13:43:25;;;;;;;9.50;3.20;;;;;;;;;;4992548;28;20529;-67
2021/03/16 13:45:51;;;;;;;7.50;3.50;;;;;;;;;;4992321;28;20458;-67
2021/03/16 13:48:18;;;;;;;6.07;3.33;;;;;;;;;;4992386;28;20954;-67
2021/03/16 13:50:45;;;;;;;4.53;3.37;;;;;;;;;;4991718;28;20537;-66
2021/03/16 13:53:12;;;;;;;7.17;3.23;;;;;;;;;;4974364;28;20491;-67
2021/03/16 13:55:39;;;;;;;5.13;3.13;;;;;;;;;;4972596;28;20455;-67
2021/03/16 13:58:05;;;;;;;6.77;2.80;;;;;;;;;;4973297;28;20459;-68
2021/03/16 14:00:32;;;;;;;6.90;2.93;;;;;;;;;;4988081;28;20459;-67
2021/03/16 14:02:59;;;;;;;7.20;3.50;;;;;;;;;;4992213;28;20868;-67
2021/03/16 14:05:25;;;;;;;5.77;3.60;;;;;;;;;;4991959;28;20542;-67
2021/03/16 14:07:52;;;;;;;8.73;3.70;;;;;;;;;;4992428;28;20452;-68
2021/03/16 14:10:20;;;;;;;8.27;3.60;;;;;;;;;;4992316;28;20533;-67
2021/03/16 14:12:46;;;;;;;8.00;3.73;;;;;;;;;;4991754;28;20810;-68
2021/03/16 14:15:13;;;;;;;6.07;3.13;;;;;;;;;;4990657;28;20953;-67
2021/03/16 14:17:40;;;;;;;7.90;3.37;;;;;;;;;;4992078;28;20455;-68
2021/03/16 14:20:08;;;;;;;6.43;3.17;;;;;;;;;;4991906;28;20456;-66
2021/03/16 14:22:34;;;;;;;7.43;3.53;;;;;;;;;;5012311;22;20525;-66
2021/03/16 14:25:01;;;;;;;7.63;2.80;;;;;;;;;;4989797;28;21032;-65
2021/03/16 14:27:28;;;;;;;6.10;3.33;;;;;;;;;;4987243;28;20443;-66
2021/03/16 14:29:55;;;;;;;5.67;3.20;;;;;;;;;;4983501;28;20522;-66
2021/03/16 14:32:22;;;;;;;7.20;3.17;;;;;;;;;;4990450;28;20469;-66
2021/03/16 14:34:49;;;;;;;9.10;3.83;;;;;;;;;;4976469;28;20487;-66
2021/03/16 14:37:15;;;;;;;6.97;3.07;;;;;;;;;;4976421;28;20451;-66